createdAt,value
2023-03-21T00:00:36.386Z,8.47
2023-03-21T00:01:36.387Z,8.47
2023-03-21T00:02:36.454Z,8.47
2023-03-21T00:03:36.442Z,8.47
2023-03-21T00:04:48.699Z,8.47
2023-03-21T00:05:36.897Z,8.47
2023-03-21T00:06:36.391Z,8.47
2023-03-21T00:07:36.407Z,8.47
2023-03-21T00:08:36.396Z,8.47
2023-03-21T00:09:36.426Z,8.47
2023-03-21T00:10:41.219Z,8.47
2023-03-21T00:11:36.394Z,8.47
2023-03-21T00:12:36.395Z,8.47
2023-03-21T00:13:36.392Z,8.47
2023-03-21T00:14:36.411Z,8.47
2023-03-21T00:15:42.511Z,8.47
2023-03-21T00:16:37.179Z,8.47
2023-03-21T00:17:36.390Z,8.47
2023-03-21T00:18:36.405Z,8.47
2023-03-21T00:19:36.397Z,8.47
2023-03-21T00:20:36.396Z,8.47
2023-03-21T00:21:46.409Z,8.47
2023-03-21T00:22:36.400Z,8.47
2023-03-21T00:23:36.415Z,8.47
2023-03-21T00:24:36.416Z,8.47
2023-03-21T00:25:36.716Z,8.47
2023-03-21T00:26:36.406Z,8.47
2023-03-21T00:27:50.299Z,8.47
2023-03-21T00:28:36.400Z,8.47
2023-03-21T00:29:36.404Z,8.47
2023-03-21T00:30:36.421Z,8.47
2023-03-21T00:31:36.411Z,8.47
2023-03-21T00:32:42.763Z,8.47
2023-03-21T00:33:36.417Z,8.47
2023-03-21T00:34:42.818Z,8.47
2023-03-21T00:35:58.596Z,8.47
2023-03-21T00:36:36.475Z,8.47
2023-03-21T00:37:36.421Z,8.47
2023-03-21T00:38:36.432Z,8.47
2023-03-21T00:39:36.485Z,8.47
2023-03-21T00:40:40.785Z,8.47
2023-03-21T00:41:42.722Z,8.47
2023-03-21T00:42:36.424Z,8.47
2023-03-21T00:43:36.422Z,8.47
2023-03-21T00:44:36.408Z,8.47
2023-03-21T00:45:36.637Z,8.47
2023-03-21T00:46:45.400Z,8.47
2023-03-21T00:47:36.514Z,8.47
2023-03-21T00:48:36.475Z,8.47
2023-03-21T00:49:36.414Z,8.47
2023-03-21T00:50:36.407Z,8.47
2023-03-21T00:51:36.420Z,8.47
2023-03-21T00:52:40.763Z,8.47
2023-03-21T00:53:36.418Z,8.47
2023-03-21T00:54:36.424Z,8.47
2023-03-21T00:55:36.637Z,8.47
2023-03-21T00:56:36.413Z,8.47
2023-03-21T00:57:39.511Z,8.47
2023-03-21T00:58:36.417Z,8.47
2023-03-21T00:59:36.409Z,8.47
2023-03-21T01:00:36.435Z,8.47
2023-03-21T01:01:36.486Z,8.47
2023-03-21T01:02:36.427Z,8.47
2023-03-21T01:03:36.423Z,8.47
2023-03-21T01:04:36.417Z,8.47
2023-03-21T01:05:36.640Z,8.47
2023-03-21T01:06:36.419Z,8.47
2023-03-21T01:07:36.432Z,8.47
2023-03-21T01:08:48.854Z,8.47
2023-03-21T01:09:36.416Z,8.47
2023-03-21T01:10:36.421Z,8.47
2023-03-21T01:11:36.436Z,8.47
2023-03-21T01:12:36.422Z,8.47
2023-03-21T01:13:38.441Z,8.47
2023-03-21T01:14:36.423Z,8.47
2023-03-21T01:15:36.596Z,8.47
2023-03-21T01:16:36.528Z,8.47
2023-03-21T01:17:36.419Z,8.47
2023-03-21T01:18:36.434Z,8.47
2023-03-21T01:19:50.471Z,8.47
2023-03-21T01:20:36.432Z,8.47
2023-03-21T01:21:36.413Z,8.47
2023-03-21T01:22:36.425Z,8.47
2023-03-21T01:23:36.417Z,8.47
2023-03-21T01:24:40.392Z,8.47
2023-03-21T01:25:36.546Z,8.47
2023-03-21T01:26:36.425Z,8.47
2023-03-21T01:27:36.429Z,8.47
2023-03-21T01:28:36.418Z,8.47
2023-03-21T01:29:36.451Z,8.47
2023-03-21T01:30:41.558Z,8.47
2023-03-21T01:31:36.452Z,8.47
2023-03-21T01:32:36.421Z,8.47
2023-03-21T01:33:36.437Z,8.47
2023-03-21T01:34:36.429Z,8.47
2023-03-21T01:35:45.037Z,8.47
2023-03-21T01:36:36.448Z,8.47
2023-03-21T01:37:36.430Z,8.47
2023-03-21T01:38:36.436Z,8.47
2023-03-21T01:39:36.436Z,8.47
2023-03-21T01:40:36.446Z,8.47
2023-03-21T01:41:42.789Z,8.47
2023-03-21T01:42:36.441Z,8.47
2023-03-21T01:43:36.451Z,8.47
2023-03-21T01:44:36.438Z,8.47
2023-03-21T01:45:36.841Z,8.47
2023-03-21T01:46:47.671Z,8.47
2023-03-21T01:47:36.444Z,8.47
2023-03-21T01:48:36.436Z,8.47
2023-03-21T01:49:36.466Z,8.47
2023-03-21T01:50:36.433Z,8.47
2023-03-21T01:51:36.442Z,8.47
2023-03-21T01:52:38.208Z,8.47
2023-03-21T01:53:36.463Z,8.47
2023-03-21T01:54:36.459Z,8.47
2023-03-21T01:55:36.806Z,8.47
2023-03-21T01:56:36.448Z,8.47
2023-03-21T01:57:43.709Z,8.47
2023-03-21T01:58:36.442Z,8.47
2023-03-21T01:59:36.443Z,8.47
2023-03-21T02:00:36.462Z,8.47
2023-03-21T02:01:36.469Z,8.47
2023-03-21T02:02:36.441Z,8.47
2023-03-21T02:03:36.736Z,8.47
2023-03-21T02:04:36.445Z,8.47
2023-03-21T02:05:36.649Z,8.47
2023-03-21T02:06:36.446Z,8.47
2023-03-21T02:07:36.454Z,8.47
2023-03-21T02:08:39.773Z,8.47
2023-03-21T02:09:36.460Z,8.47
2023-03-21T02:10:36.445Z,8.47
2023-03-21T02:11:36.455Z,8.47
2023-03-21T02:12:36.446Z,8.47
2023-03-21T02:13:36.451Z,8.47
2023-03-21T02:14:36.463Z,8.47
2023-03-21T02:15:36.688Z,8.47
2023-03-21T02:16:36.544Z,8.47
2023-03-21T02:17:36.480Z,8.47
2023-03-21T02:18:36.450Z,8.47
2023-03-21T02:19:44.498Z,8.47
2023-03-21T02:20:36.447Z,8.47
2023-03-21T02:21:36.453Z,8.47
2023-03-21T02:22:36.455Z,8.47
2023-03-21T02:23:36.447Z,8.47
2023-03-21T02:24:36.452Z,8.47
2023-03-21T02:25:36.607Z,8.47
2023-03-21T02:26:42.214Z,8.47
2023-03-21T02:27:36.460Z,8.47
2023-03-21T02:28:36.456Z,8.47
2023-03-21T02:29:36.453Z,8.47
2023-03-21T02:30:45.783Z,8.47
2023-03-21T02:31:36.520Z,8.47
2023-03-21T02:32:37.963Z,8.47
2023-03-21T02:33:36.478Z,8.47
2023-03-21T02:34:36.478Z,8.47
2023-03-21T02:35:41.445Z,8.47
2023-03-21T02:36:36.562Z,8.47
2023-03-21T02:37:38.542Z,8.47
2023-03-21T02:38:36.470Z,8.47
2023-03-21T02:39:36.463Z,8.47
2023-03-21T02:40:36.728Z,8.47
2023-03-21T02:41:40.260Z,8.47
2023-03-21T02:42:36.451Z,8.47
2023-03-21T02:43:36.449Z,8.47
2023-03-21T02:44:36.451Z,8.47
2023-03-21T02:45:36.452Z,8.47
2023-03-21T02:46:44.098Z,8.47
2023-03-21T02:47:36.457Z,8.47
2023-03-21T02:48:49.658Z,8.47
2023-03-21T02:49:36.477Z,8.47
2023-03-21T02:50:36.774Z,8.47
2023-03-21T02:51:36.451Z,8.47
2023-03-21T02:52:39.384Z,8.47
2023-03-21T02:53:36.446Z,8.47
2023-03-21T02:54:47.454Z,8.47
2023-03-21T02:55:36.456Z,8.47
2023-03-21T02:56:36.464Z,8.47
2023-03-21T02:57:42.410Z,8.47
2023-03-21T02:58:36.467Z,8.47
2023-03-21T02:59:41.789Z,8.47
2023-03-21T03:00:36.696Z,8.47
2023-03-21T03:01:36.500Z,8.47
2023-03-21T03:02:36.458Z,8.47
2023-03-21T03:03:36.457Z,8.47
2023-03-21T03:04:36.557Z,8.47
2023-03-21T03:05:36.482Z,8.47
2023-03-21T03:06:36.480Z,8.47
2023-03-21T03:07:36.474Z,8.47
2023-03-21T03:08:43.018Z,8.47
2023-03-21T03:09:36.487Z,8.47
2023-03-21T03:10:36.640Z,8.47
2023-03-21T03:11:36.486Z,8.47
2023-03-21T03:12:36.473Z,8.47
2023-03-21T03:13:36.466Z,8.47
2023-03-21T03:14:49.737Z,8.47
2023-03-21T03:15:36.524Z,8.47
2023-03-21T03:16:36.457Z,8.47
2023-03-21T03:17:36.477Z,8.47
2023-03-21T03:18:36.470Z,8.47
2023-03-21T03:19:44.596Z,8.47
2023-03-21T03:20:36.854Z,8.47
2023-03-21T03:21:36.495Z,8.47
2023-03-21T03:22:36.478Z,8.47
2023-03-21T03:23:36.477Z,8.47
2023-03-21T03:24:36.471Z,8.47
2023-03-21T03:25:42.686Z,8.47
2023-03-21T03:26:36.482Z,8.47
2023-03-21T03:27:36.481Z,8.47
2023-03-21T03:28:36.482Z,8.47
2023-03-21T03:29:36.467Z,8.47
2023-03-21T03:30:43.304Z,8.47
2023-03-21T03:31:36.512Z,8.47
2023-03-21T03:32:36.474Z,8.47
2023-03-21T03:33:36.502Z,8.47
2023-03-21T03:34:36.494Z,8.47
2023-03-21T03:35:36.516Z,8.47
2023-03-21T03:36:36.526Z,8.47
2023-03-21T03:37:36.504Z,8.47
2023-03-21T03:38:36.492Z,8.47
2023-03-21T03:39:36.491Z,8.47
2023-03-21T03:40:36.698Z,8.47
2023-03-21T03:41:56.527Z,8.47
2023-03-21T03:42:36.485Z,8.47
2023-03-21T03:43:36.481Z,8.47
2023-03-21T03:44:36.487Z,8.47
2023-03-21T03:45:36.486Z,8.47
2023-03-21T03:46:36.541Z,8.47
2023-03-21T03:47:42.017Z,8.47
2023-03-21T03:48:36.602Z,8.47
2023-03-21T03:49:36.484Z,8.47
2023-03-21T03:50:36.763Z,8.47
2023-03-21T03:51:36.491Z,8.47
2023-03-21T03:52:38.378Z,8.47
2023-03-21T03:53:36.509Z,8.47
2023-03-21T03:54:36.491Z,8.47
2023-03-21T03:55:36.485Z,8.47
2023-03-21T03:56:36.497Z,8.47
2023-03-21T03:57:36.491Z,8.47
2023-03-21T03:58:45.156Z,8.47
2023-03-21T03:59:36.482Z,8.47
2023-03-21T04:00:36.722Z,8.47
2023-03-21T04:01:36.545Z,8.47
2023-03-21T04:02:36.532Z,8.47
2023-03-21T04:03:47.818Z,8.47
2023-03-21T04:04:36.544Z,8.47
2023-03-21T04:05:36.480Z,8.47
2023-03-21T04:06:36.488Z,8.47
2023-03-21T04:07:36.498Z,8.47
2023-03-21T04:08:36.487Z,8.47
2023-03-21T04:09:43.928Z,8.47
2023-03-21T04:10:36.788Z,8.47
2023-03-21T04:11:36.486Z,8.47
2023-03-21T04:12:36.494Z,8.47
2023-03-21T04:13:36.483Z,8.47
2023-03-21T04:14:44.289Z,8.47
2023-03-21T04:15:36.487Z,8.47
2023-03-21T04:16:36.530Z,8.47
2023-03-21T04:17:36.486Z,8.47
2023-03-21T04:18:36.493Z,8.47
2023-03-21T04:19:36.491Z,8.47
2023-03-21T04:20:37.479Z,8.47
2023-03-21T04:21:36.497Z,8.47
2023-03-21T04:22:36.512Z,8.47
2023-03-21T04:23:36.499Z,8.47
2023-03-21T04:24:36.495Z,8.47
2023-03-21T04:25:38.595Z,8.47
2023-03-21T04:26:36.512Z,8.47
2023-03-21T04:27:36.494Z,8.47
2023-03-21T04:28:36.505Z,8.47
2023-03-21T04:29:36.495Z,8.47
2023-03-21T04:30:36.898Z,8.47
2023-03-21T04:31:36.568Z,8.47
2023-03-21T04:32:36.501Z,8.47
2023-03-21T04:33:36.505Z,8.47
2023-03-21T04:34:36.505Z,8.47
2023-03-21T04:35:37.603Z,8.47
2023-03-21T04:36:36.506Z,8.47
2023-03-21T04:37:36.525Z,8.47
2023-03-21T04:38:36.504Z,8.47
2023-03-21T04:39:36.491Z,8.47
2023-03-21T04:40:36.783Z,8.47
2023-03-21T04:41:36.518Z,8.47
2023-03-21T04:42:36.509Z,8.47
2023-03-21T04:43:36.532Z,8.47
2023-03-21T04:44:36.504Z,8.47
2023-03-21T04:45:36.552Z,8.47
2023-03-21T04:46:36.518Z,8.47
2023-03-21T04:47:36.524Z,8.47
2023-03-21T04:48:36.514Z,8.47
2023-03-21T04:49:36.513Z,8.47
2023-03-21T04:50:36.655Z,8.47
2023-03-21T04:51:36.512Z,8.47
2023-03-21T04:52:36.518Z,8.47
2023-03-21T04:53:36.511Z,8.47
2023-03-21T04:54:36.514Z,8.47
2023-03-21T04:55:36.758Z,8.47
2023-03-21T04:56:36.582Z,8.47
2023-03-21T04:57:36.529Z,8.47
2023-03-21T04:58:36.507Z,8.47
2023-03-21T04:59:36.510Z,8.47
2023-03-21T05:00:36.512Z,8.47
2023-03-21T05:01:36.509Z,8.47
2023-03-21T05:02:36.517Z,8.47
2023-03-21T05:03:36.574Z,8.47
2023-03-21T05:04:36.519Z,8.47
2023-03-21T05:05:36.745Z,8.47
2023-03-21T05:06:36.535Z,8.47
2023-03-21T05:07:36.526Z,8.47
2023-03-21T05:08:36.522Z,8.47
2023-03-21T05:09:36.519Z,8.47
2023-03-21T05:10:36.524Z,8.47
2023-03-21T05:11:36.524Z,8.47
2023-03-21T05:12:36.510Z,8.47
2023-03-21T05:13:36.535Z,8.47
2023-03-21T05:14:36.527Z,8.47
2023-03-21T05:15:36.801Z,8.47
2023-03-21T05:16:36.675Z,8.47
2023-03-21T05:17:36.527Z,8.47
2023-03-21T05:18:36.525Z,8.47
2023-03-21T05:19:36.540Z,8.47
2023-03-21T05:20:36.524Z,8.47
2023-03-21T05:21:36.523Z,8.47
2023-03-21T05:22:36.520Z,8.47
2023-03-21T05:23:36.532Z,8.47
2023-03-21T05:24:36.536Z,8.47
2023-03-21T05:25:36.820Z,8.47
2023-03-21T05:26:36.534Z,8.47
2023-03-21T05:27:36.607Z,8.47
2023-03-21T05:28:36.527Z,8.47
2023-03-21T05:29:36.577Z,8.47
2023-03-21T05:30:36.596Z,8.47
2023-03-21T05:31:36.534Z,8.47
2023-03-21T05:32:36.551Z,8.47
2023-03-21T05:33:36.536Z,8.47
2023-03-21T05:34:36.542Z,8.47
2023-03-21T05:35:36.859Z,8.47
2023-03-21T05:36:36.550Z,8.47
2023-03-21T05:37:36.550Z,8.47
2023-03-21T05:38:36.543Z,8.47
2023-03-21T05:39:36.547Z,8.47
2023-03-21T05:40:36.546Z,8.47
2023-03-21T05:41:36.553Z,8.47
2023-03-21T05:42:36.548Z,8.47
2023-03-21T05:43:36.542Z,8.47
2023-03-21T05:44:36.557Z,8.47
2023-03-21T05:45:36.680Z,8.47
2023-03-21T05:46:36.585Z,8.47
2023-03-21T05:47:36.558Z,8.47
2023-03-21T05:48:36.564Z,8.47
2023-03-21T05:49:36.545Z,8.47
2023-03-21T05:50:36.558Z,8.47
2023-03-21T05:51:36.547Z,8.47
2023-03-21T05:52:36.556Z,8.47
2023-03-21T05:53:36.545Z,8.47
2023-03-21T05:54:36.559Z,8.47
2023-03-21T05:55:36.844Z,8.47
2023-03-21T05:56:36.559Z,8.47
2023-03-21T05:57:36.557Z,8.47
2023-03-21T05:58:36.550Z,8.47
2023-03-21T05:59:36.550Z,8.47
2023-03-21T06:00:36.556Z,8.47
2023-03-21T06:01:36.584Z,8.47
2023-03-21T06:02:36.611Z,8.47
2023-03-21T06:03:36.596Z,8.47
2023-03-21T06:04:36.556Z,8.47
2023-03-21T06:05:36.699Z,8.47
2023-03-21T06:06:36.547Z,8.47
2023-03-21T06:07:36.563Z,8.47
2023-03-21T06:08:36.574Z,8.47
2023-03-21T06:09:36.561Z,8.47
2023-03-21T06:10:36.555Z,8.47
2023-03-21T06:11:36.560Z,8.47
2023-03-21T06:12:36.578Z,8.47
2023-03-21T06:13:36.563Z,8.47
2023-03-21T06:14:36.561Z,8.47
2023-03-21T06:15:37.001Z,8.47
2023-03-21T06:16:36.573Z,8.47
2023-03-21T06:17:36.609Z,8.47
2023-03-21T06:18:36.564Z,8.47
2023-03-21T06:19:36.563Z,8.47
2023-03-21T06:20:36.559Z,8.47
2023-03-21T06:21:36.560Z,8.47
2023-03-21T06:22:36.561Z,8.47
2023-03-21T06:23:36.588Z,8.47
2023-03-21T06:24:36.575Z,8.47
2023-03-21T06:25:36.807Z,8.47
2023-03-21T06:26:36.598Z,8.47
2023-03-21T06:27:36.570Z,8.47
2023-03-21T06:28:36.591Z,8.47
2023-03-21T06:29:36.569Z,8.47
2023-03-21T06:30:36.568Z,8.47
2023-03-21T06:31:36.640Z,8.47
2023-03-21T06:32:36.576Z,8.47
2023-03-21T06:33:36.611Z,8.47
2023-03-21T06:34:38.415Z,8.47
2023-03-21T06:35:36.870Z,8.47
2023-03-21T06:36:36.577Z,8.47
2023-03-21T06:37:36.579Z,8.47
2023-03-21T06:38:36.571Z,8.47
2023-03-21T06:39:36.570Z,8.47
2023-03-21T06:40:36.581Z,8.47
2023-03-21T06:41:36.571Z,8.47
2023-03-21T06:42:36.585Z,8.47
2023-03-21T06:43:36.590Z,8.47
2023-03-21T06:44:36.580Z,8.47
2023-03-21T06:45:36.988Z,8.47
2023-03-21T06:46:36.601Z,8.47
2023-03-21T06:47:36.580Z,8.47
2023-03-21T06:48:36.575Z,8.47
2023-03-21T06:49:36.611Z,8.47
2023-03-21T06:50:36.579Z,8.47
2023-03-21T06:51:36.600Z,8.47
2023-03-21T06:52:36.571Z,8.47
2023-03-21T06:53:36.587Z,8.47
2023-03-21T06:54:36.575Z,8.47
2023-03-21T06:55:36.919Z,8.47
2023-03-21T06:56:36.580Z,8.47
2023-03-21T06:57:36.591Z,8.47
2023-03-21T06:58:36.597Z,8.47
2023-03-21T06:59:36.598Z,8.47
2023-03-21T07:00:36.612Z,8.47
2023-03-21T07:01:36.588Z,8.47
2023-03-21T07:02:36.630Z,8.47
2023-03-21T07:03:36.592Z,8.47
2023-03-21T07:04:36.593Z,8.47
2023-03-21T07:05:37.065Z,8.47
2023-03-21T07:06:36.584Z,8.47
2023-03-21T07:07:36.591Z,8.47
2023-03-21T07:08:36.588Z,8.47
2023-03-21T07:09:36.597Z,8.47
2023-03-21T07:10:36.610Z,8.47
2023-03-21T07:11:36.606Z,8.47
2023-03-21T07:12:36.606Z,8.47
2023-03-21T07:13:36.610Z,8.47
2023-03-21T07:14:36.607Z,8.47
2023-03-21T07:15:36.761Z,8.47
2023-03-21T07:16:36.669Z,8.47
2023-03-21T07:17:36.602Z,8.47
2023-03-21T07:18:36.608Z,8.47
2023-03-21T07:19:36.604Z,8.47
2023-03-21T07:20:36.623Z,8.47
2023-03-21T07:21:36.655Z,8.47
2023-03-21T07:22:36.638Z,8.47
2023-03-21T07:23:36.622Z,8.47
2023-03-21T07:24:36.603Z,8.47
2023-03-21T07:25:36.964Z,8.47
2023-03-21T07:26:36.629Z,8.47
2023-03-21T07:27:37.096Z,8.47
2023-03-21T07:28:36.610Z,8.47
2023-03-21T07:29:36.622Z,8.47
2023-03-21T07:30:36.617Z,8.47
2023-03-21T07:31:36.700Z,8.47
2023-03-21T07:32:36.616Z,8.47
2023-03-21T07:33:36.632Z,8.47
2023-03-21T07:34:36.632Z,8.47
2023-03-21T07:35:37.025Z,8.47
2023-03-21T07:36:36.618Z,8.47
2023-03-21T07:37:38.095Z,8.47
2023-03-21T07:38:36.632Z,8.47
2023-03-21T07:39:36.617Z,8.47
2023-03-21T07:40:36.950Z,8.47
2023-03-21T07:41:36.632Z,8.47
2023-03-21T07:42:36.637Z,8.47
2023-03-21T07:43:37.231Z,8.47
2023-03-21T07:44:36.644Z,8.47
2023-03-21T07:45:36.843Z,8.47
2023-03-21T07:46:36.640Z,8.47
2023-03-21T07:47:36.652Z,8.47
2023-03-21T07:48:36.637Z,8.47
2023-03-21T07:49:36.628Z,8.47
2023-03-21T07:50:36.625Z,8.47
2023-03-21T07:51:36.646Z,8.47
2023-03-21T07:52:36.646Z,8.47
2023-03-21T07:53:36.664Z,8.47
2023-03-21T07:54:36.621Z,8.47
2023-03-21T07:55:36.929Z,8.47
2023-03-21T07:56:36.633Z,8.47
2023-03-21T07:57:36.627Z,8.47
2023-03-21T07:58:36.637Z,8.47
2023-03-21T07:59:36.639Z,8.47
2023-03-21T08:00:36.638Z,8.47
2023-03-21T08:01:36.629Z,8.47
2023-03-21T08:02:36.675Z,8.47
2023-03-21T08:03:36.659Z,8.47
2023-03-21T08:04:36.640Z,8.47
2023-03-21T08:05:37.154Z,8.47
2023-03-21T08:06:36.640Z,8.47
2023-03-21T08:07:36.640Z,8.47
2023-03-21T08:08:36.641Z,8.47
2023-03-21T08:09:36.675Z,8.47
2023-03-21T08:10:36.650Z,8.47
2023-03-21T08:11:36.638Z,8.47
2023-03-21T08:12:36.642Z,8.47
2023-03-21T08:13:36.650Z,8.47
2023-03-21T08:14:36.665Z,8.47
2023-03-21T08:15:36.984Z,8.47
2023-03-21T08:16:36.675Z,8.47
2023-03-21T08:17:36.689Z,8.47
2023-03-21T08:18:36.663Z,8.47
2023-03-21T08:19:36.645Z,8.47
2023-03-21T08:20:36.646Z,8.47
2023-03-21T08:21:36.646Z,8.47
2023-03-21T08:22:36.648Z,8.47
2023-03-21T08:23:36.649Z,8.47
2023-03-21T08:24:36.653Z,8.47
2023-03-21T08:25:37.036Z,8.47
2023-03-21T08:26:36.655Z,8.47
2023-03-21T08:27:36.666Z,8.47
2023-03-21T08:28:36.666Z,8.47
2023-03-21T08:29:36.656Z,8.47
2023-03-21T08:30:36.689Z,8.47
2023-03-21T08:31:36.669Z,8.47
2023-03-21T08:32:36.664Z,8.47
2023-03-21T08:33:36.669Z,8.47
2023-03-21T08:34:36.654Z,8.47
2023-03-21T08:35:39.042Z,8.47
2023-03-21T08:36:36.660Z,8.47
2023-03-21T08:37:36.666Z,8.47
2023-03-21T08:38:36.677Z,8.47
2023-03-21T08:39:36.724Z,8.47
2023-03-21T08:40:36.673Z,8.47
2023-03-21T08:41:36.688Z,8.47
2023-03-21T08:42:36.686Z,8.47
2023-03-21T08:43:36.689Z,8.47
2023-03-21T08:44:36.671Z,8.47
2023-03-21T08:45:36.957Z,8.47
2023-03-21T08:46:36.709Z,8.47
2023-03-21T08:47:36.673Z,8.47
2023-03-21T08:48:36.691Z,29.65
2023-03-21T08:49:36.675Z,29.65
2023-03-21T08:50:36.695Z,29.65
2023-03-21T08:51:36.686Z,29.65
2023-03-21T08:52:36.683Z,50.82
2023-03-21T08:53:36.703Z,49.41
2023-03-21T08:54:36.695Z,48
2023-03-21T08:55:36.997Z,48
2023-03-21T08:56:37.520Z,48
2023-03-21T08:57:36.724Z,48
2023-03-21T08:58:36.704Z,48
2023-03-21T08:59:36.684Z,48
2023-03-21T09:00:36.684Z,48
2023-03-21T09:01:36.724Z,48
2023-03-21T09:02:36.693Z,48
2023-03-21T09:03:36.694Z,326.12
2023-03-21T09:04:36.730Z,323.29
2023-03-21T09:05:36.931Z,168
2023-03-21T09:06:36.704Z,176.47
2023-03-21T09:07:36.692Z,203.29
2023-03-21T09:08:36.712Z,187.76
2023-03-21T09:09:36.697Z,193.41
2023-03-21T09:10:36.696Z,190.59
2023-03-21T09:11:36.710Z,196.24
2023-03-21T09:12:36.701Z,180.71
2023-03-21T09:13:36.720Z,217.41
2023-03-21T09:14:36.711Z,210.35
2023-03-21T09:15:37.144Z,193.41
2023-03-21T09:16:36.701Z,203.29
2023-03-21T09:17:36.704Z,203.29
2023-03-21T09:18:36.724Z,203.29
2023-03-21T09:19:36.713Z,203.29
2023-03-21T09:20:36.705Z,183.53
2023-03-21T09:21:36.745Z,153.88
2023-03-21T09:22:36.705Z,176.47
2023-03-21T09:23:36.720Z,176.47
2023-03-21T09:24:36.730Z,176.47
2023-03-21T09:25:36.979Z,176.47
2023-03-21T09:26:36.713Z,149.65
2023-03-21T09:27:36.709Z,144
2023-03-21T09:28:36.715Z,190.59
2023-03-21T09:29:36.744Z,190.59
2023-03-21T09:30:36.741Z,190.59
2023-03-21T09:31:36.810Z,111.53
2023-03-21T09:32:36.712Z,144
2023-03-21T09:33:36.724Z,197.65
2023-03-21T09:34:36.719Z,163.76
2023-03-21T09:35:37.058Z,208.94
2023-03-21T09:36:36.730Z,127.06
2023-03-21T09:37:36.721Z,152.47
2023-03-21T09:38:36.723Z,87.53
2023-03-21T09:39:36.734Z,96
2023-03-21T09:40:36.722Z,67.76
2023-03-21T09:41:36.727Z,84.71
2023-03-21T09:42:36.726Z,184.94
2023-03-21T09:43:36.749Z,155.29
2023-03-21T09:44:36.736Z,121.41
2023-03-21T09:45:37.112Z,144
2023-03-21T09:46:36.808Z,159.53
2023-03-21T09:47:36.730Z,110.12
2023-03-21T09:48:39.551Z,110.12
2023-03-21T09:49:36.736Z,110.12
2023-03-21T09:50:36.741Z,110.12
2023-03-21T09:51:37.078Z,110.12
2023-03-21T09:52:36.749Z,110.12
2023-03-21T09:53:36.727Z,110.12
2023-03-21T09:54:36.739Z,79.06
2023-03-21T09:55:36.965Z,104.47
2023-03-21T09:56:36.752Z,62.12
2023-03-21T09:57:36.728Z,76.24
2023-03-21T09:58:36.772Z,55.06
2023-03-21T09:59:36.746Z,39.53
2023-03-21T10:00:36.748Z,48
2023-03-21T10:01:36.843Z,48
2023-03-21T10:02:36.782Z,52.24
2023-03-21T10:03:36.740Z,31.06
2023-03-21T10:04:36.795Z,29.65
2023-03-21T10:05:37.043Z,326.12
2023-03-21T10:06:36.739Z,309.18
2023-03-21T10:07:36.744Z,309.18
2023-03-21T10:08:36.759Z,160.94
2023-03-21T10:09:36.744Z,177.88
2023-03-21T10:10:36.997Z,192
2023-03-21T10:11:36.742Z,182.12
2023-03-21T10:12:36.742Z,182.12
2023-03-21T10:13:36.735Z,182.12
2023-03-21T10:14:36.754Z,220.24
2023-03-21T10:15:37.299Z,193.41
2023-03-21T10:16:36.766Z,213.18
2023-03-21T10:17:36.802Z,176.47
2023-03-21T10:18:36.747Z,176.47
2023-03-21T10:19:36.755Z,176.47
2023-03-21T10:20:36.754Z,176.47
2023-03-21T10:21:58.879Z,176.47
2023-03-21T10:22:36.745Z,176.47
2023-03-21T10:23:36.762Z,176.47
2023-03-21T10:24:36.777Z,176.47
2023-03-21T10:25:37.094Z,176.47
2023-03-21T10:26:36.754Z,252.71
2023-03-21T10:27:36.763Z,306.35
2023-03-21T10:28:50.196Z,288
2023-03-21T10:29:36.795Z,234.35
2023-03-21T10:30:36.763Z,216
2023-03-21T10:31:36.790Z,200.47
2023-03-21T10:32:36.783Z,245.65
2023-03-21T10:33:36.777Z,176.47
2023-03-21T10:34:36.753Z,179.29
2023-03-21T10:35:37.170Z,199.06
2023-03-21T10:36:36.756Z,203.29
2023-03-21T10:37:36.760Z,213.18
2023-03-21T10:38:36.771Z,228.71
2023-03-21T10:39:36.775Z,210.35
2023-03-21T10:40:36.765Z,218.82
2023-03-21T10:41:36.755Z,224.47
2023-03-21T10:42:36.766Z,211.76
2023-03-21T10:43:36.757Z,201.88
2023-03-21T10:44:36.766Z,258.35
2023-03-21T10:45:37.080Z,255.53
2023-03-21T10:46:36.899Z,265.41
2023-03-21T10:47:36.965Z,241.41
2023-03-21T10:48:36.827Z,241.41
2023-03-21T10:49:50.229Z,244.24
2023-03-21T10:50:36.794Z,245.65
2023-03-21T10:51:36.769Z,251.29
2023-03-21T10:52:36.763Z,240
2023-03-21T10:53:36.777Z,261.18
2023-03-21T10:54:36.761Z,203.29
2023-03-21T10:55:36.964Z,249.88
2023-03-21T10:56:36.769Z,207.53
2023-03-21T10:57:36.762Z,194.82
2023-03-21T10:58:36.773Z,251.29
2023-03-21T10:59:36.766Z,251.29
2023-03-21T11:00:36.774Z,234.35
2023-03-21T11:01:36.846Z,240
2023-03-21T11:02:36.801Z,244.24
2023-03-21T11:03:36.771Z,220.24
2023-03-21T11:04:36.771Z,128.47
2023-03-21T11:05:37.240Z,216
2023-03-21T11:06:36.770Z,208.94
2023-03-21T11:07:36.778Z,224.47
2023-03-21T11:08:36.763Z,237.18
2023-03-21T11:09:36.786Z,242.82
2023-03-21T11:10:36.771Z,241.41
2023-03-21T11:11:36.776Z,216
2023-03-21T11:12:36.773Z,216
2023-03-21T11:13:36.779Z,152.47
2023-03-21T11:14:36.783Z,153.88
2023-03-21T11:15:36.939Z,155.29
2023-03-21T11:16:38.459Z,155.29
2023-03-21T11:17:36.784Z,155.29
2023-03-21T11:18:36.778Z,155.29
2023-03-21T11:19:36.782Z,210.35
2023-03-21T11:20:36.820Z,88.94
2023-03-21T11:21:36.817Z,136.94
2023-03-21T11:22:36.798Z,105.88
2023-03-21T11:23:36.787Z,108.71
2023-03-21T11:24:36.771Z,107.29
2023-03-21T11:25:37.253Z,173.65
2023-03-21T11:26:36.795Z,159.53
2023-03-21T11:27:36.785Z,114.35
2023-03-21T11:28:36.791Z,57.88
2023-03-21T11:29:36.777Z,155.29
2023-03-21T11:30:36.856Z,193.41
2023-03-21T11:31:36.789Z,189.18
2023-03-21T11:32:36.787Z,162.35
2023-03-21T11:33:36.773Z,162.35
2023-03-21T11:34:36.789Z,149.65
2023-03-21T11:35:37.239Z,136.94
2023-03-21T11:36:36.782Z,166.59
2023-03-21T11:37:36.864Z,184.94
2023-03-21T11:38:36.793Z,160.94
2023-03-21T11:39:36.789Z,132.71
2023-03-21T11:40:36.807Z,180.71
2023-03-21T11:41:36.797Z,158.12
2023-03-21T11:42:36.783Z,245.65
2023-03-21T11:43:36.793Z,177.88
2023-03-21T11:44:36.802Z,186.35
2023-03-21T11:45:37.246Z,176.47
2023-03-21T11:46:36.845Z,125.65
2023-03-21T11:47:36.802Z,149.65
2023-03-21T11:48:36.793Z,199.06
2023-03-21T11:49:36.806Z,197.65
2023-03-21T11:50:36.802Z,175.06
2023-03-21T11:51:36.806Z,189.18
2023-03-21T11:52:36.800Z,146.82
2023-03-21T11:53:36.825Z,193.41
2023-03-21T11:54:36.803Z,211.76
2023-03-21T11:55:37.134Z,234.35
2023-03-21T11:56:36.803Z,206.12
2023-03-21T11:57:37.815Z,170.82
2023-03-21T11:58:36.847Z,187.76
2023-03-21T11:59:36.807Z,211.76
2023-03-21T12:00:36.819Z,135.53
2023-03-21T12:01:36.816Z,194.82
2023-03-21T12:02:36.915Z,148.24
2023-03-21T12:03:47.021Z,179.29
2023-03-21T12:04:36.909Z,97.41
2023-03-21T12:05:37.181Z,244.24
2023-03-21T12:06:36.826Z,249.88
2023-03-21T12:07:36.837Z,192
2023-03-21T12:08:36.849Z,204.71
2023-03-21T12:09:36.837Z,204.71
2023-03-21T12:10:36.809Z,184.94
2023-03-21T12:11:36.816Z,159.53
2023-03-21T12:12:39.319Z,125.65
2023-03-21T12:13:36.815Z,197.65
2023-03-21T12:14:36.821Z,254.12
2023-03-21T12:15:36.974Z,319.06
2023-03-21T12:16:36.933Z,295.06
2023-03-21T12:17:36.821Z,313.41
2023-03-21T12:18:36.830Z,312
2023-03-21T12:19:36.817Z,275.29
2023-03-21T12:20:36.829Z,302.12
2023-03-21T12:21:36.826Z,261.18
2023-03-21T12:22:36.819Z,261.18
2023-03-21T12:23:36.850Z,5.65
2023-03-21T12:24:36.820Z,5.65
2023-03-21T12:25:37.130Z,5.65
2023-03-21T12:26:36.824Z,32.47
2023-03-21T12:27:36.814Z,53.65
2023-03-21T12:28:36.821Z,282.35
2023-03-21T12:29:36.827Z,319.06
2023-03-21T12:30:36.826Z,295.06
2023-03-21T12:31:36.875Z,266.82
2023-03-21T12:32:36.842Z,242.82
2023-03-21T12:33:36.830Z,258.35
2023-03-21T12:34:36.823Z,300.71
2023-03-21T12:35:37.093Z,196.24
2023-03-21T12:36:36.834Z,152.47
2023-03-21T12:37:36.826Z,278.12
2023-03-21T12:38:36.833Z,292.24
2023-03-21T12:39:36.841Z,297.88
2023-03-21T12:40:36.851Z,290.82
2023-03-21T12:41:36.956Z,282.35
2023-03-21T12:42:36.832Z,292.24
2023-03-21T12:43:36.832Z,289.41
2023-03-21T12:44:36.833Z,295.06
2023-03-21T12:45:46.462Z,293.65
2023-03-21T12:46:36.882Z,297.88
2023-03-21T12:47:36.847Z,265.41
2023-03-21T12:48:36.853Z,292.24
2023-03-21T12:49:36.837Z,289.41
2023-03-21T12:50:36.863Z,288
2023-03-21T12:51:36.849Z,235.76
2023-03-21T12:52:36.838Z,207.53
2023-03-21T12:53:36.853Z,170.82
2023-03-21T12:54:36.848Z,187.76
2023-03-21T12:55:37.075Z,230.12
2023-03-21T12:56:36.858Z,211.76
2023-03-21T12:57:40.090Z,211.76
2023-03-21T12:58:36.849Z,204.71
2023-03-21T12:59:36.843Z,208.94
2023-03-21T13:00:37.103Z,214.59
2023-03-21T13:01:36.856Z,217.41
2023-03-21T13:02:36.848Z,213.18
2023-03-21T13:03:40.104Z,201.88
2023-03-21T13:04:36.969Z,218.82
2023-03-21T13:05:36.859Z,238.59